Time;durP1;ratioP1;P1;durP2;ratioP2;P2;SDS_P1;SDS_P2;PMS_P1;PMS_P2;Temp;Humidity;BMP_temperature;BMP_pressure;BME280_temperature;BME280_humidity;BME280_pressure;Samples;Min_cycle;Max_cycle;Signal;HPM_P1;HPM_P2
2021/11/15 00:01:25;;;;;;;285.15;151.20;;;;;;;;;;5036107;28;20057;-61
2021/11/15 00:03:52;;;;;;;371.33;204.13;;;;;;;;;;5035702;28;20057;-60
2021/11/15 00:06:18;;;;;;;360.05;203.95;;;;;;;;;;5035767;28;20140;-61
2021/11/15 00:08:44;;;;;;;411.75;236.20;;;;;;;;;;5016781;28;20076;-62
2021/11/15 00:14:14;;;;;;;415.02;236.05;;;;;;;;;;5016464;28;20088;-61
2021/11/15 00:16:40;;;;;;;391.95;224.18;;;;;;;;;;5015430;28;20109;-61
2021/11/15 00:19:06;;;;;;;374.80;219.57;;;;;;;;;;5016174;28;20069;-60
2021/11/15 00:21:33;;;;;;;345.35;192.85;;;;;;;;;;5014940;28;20057;-62
2021/11/15 00:23:59;;;;;;;342.23;190.20;;;;;;;;;;5016590;28;20564;-61
2021/11/15 00:26:25;;;;;;;304.17;168.73;;;;;;;;;;5014449;28;20425;-61
2021/11/15 00:28:52;;;;;;;306.23;157.93;;;;;;;;;;5015980;28;20026;-60
2021/11/15 00:31:19;;;;;;;300.45;161.07;;;;;;;;;;5015469;28;20038;-60
2021/11/15 00:33:45;;;;;;;285.60;154.57;;;;;;;;;;5015975;28;20030;-61
2021/11/15 00:36:12;;;;;;;259.83;141.68;;;;;;;;;;5015978;28;20109;-61
2021/11/15 00:38:38;;;;;;;268.33;141.57;;;;;;;;;;5030297;28;20359;-62
2021/11/15 00:41:04;;;;;;;272.08;144.55;;;;;;;;;;5034120;28;20040;-62
2021/11/15 00:43:30;;;;;;;281.88;149.05;;;;;;;;;;5034346;28;20029;-62
2021/11/15 00:45:56;;;;;;;274.17;149.38;;;;;;;;;;5034411;28;20109;-62
2021/11/15 00:48:23;;;;;;;269.10;146.00;;;;;;;;;;5034344;28;20049;-61
2021/11/15 00:50:49;;;;;;;223.15;124.75;;;;;;;;;;5034521;28;20112;-61
2021/11/15 00:53:15;;;;;;;249.63;134.77;;;;;;;;;;5034348;28;20112;-62
2021/11/15 00:55:42;;;;;;;223.93;122.72;;;;;;;;;;5034322;28;20454;-61
2021/11/15 00:58:08;;;;;;;233.55;131.10;;;;;;;;;;5034675;28;20071;-61
2021/11/15 01:00:37;;;;;;;211.68;118.03;;;;;;;;;;5034810;28;20394;-63
2021/11/15 01:03:06;;;;;;;204.18;117.55;;;;;;;;;;5034978;28;20442;-60
2021/11/15 01:05:33;;;;;;;212.40;118.25;;;;;;;;;;5017484;28;20029;-61
2021/11/15 01:07:59;;;;;;;209.60;118.38;;;;;;;;;;5035215;28;20426;-61
2021/11/15 01:10:26;;;;;;;238.13;129.25;;;;;;;;;;5035208;28;20072;-61
2021/11/15 01:12:52;;;;;;;237.00;126.40;;;;;;;;;;5034715;28;20149;-61
2021/11/15 01:15:20;;;;;;;453.50;149.00;;;;;;;;;;5035167;28;20029;-61
2021/11/15 01:17:47;;;;;;;596.20;166.88;;;;;;;;;;5034699;28;20120;-61
2021/11/15 01:20:14;;;;;;;498.80;171.63;;;;;;;;;;5017236;28;20037;-61
2021/11/15 01:22:40;;;;;;;543.05;165.57;;;;;;;;;;5035016;28;20060;-61
2021/11/15 01:25:08;;;;;;;542.20;145.73;;;;;;;;;;5034914;28;20074;-60
2021/11/15 01:27:35;;;;;;;454.88;157.23;;;;;;;;;;5034604;28;20029;-61
2021/11/15 01:30:01;;;;;;;367.30;153.02;;;;;;;;;;5017007;28;20374;-63
2021/11/15 01:32:27;;;;;;;313.13;153.35;;;;;;;;;;5034808;28;20034;-63
2021/11/15 01:34:54;;;;;;;335.75;152.60;;;;;;;;;;5034788;28;20053;-63
2021/11/15 01:37:21;;;;;;;244.05;135.00;;;;;;;;;;5034658;28;20025;-63
2021/11/15 01:39:47;;;;;;;275.52;149.15;;;;;;;;;;5034635;28;20096;-63
2021/11/15 01:42:14;;;;;;;310.30;164.63;;;;;;;;;;5016855;28;20128;-64
2021/11/15 01:44:40;;;;;;;273.50;142.10;;;;;;;;;;5016507;28;20033;-63
2021/11/15 01:47:06;;;;;;;285.85;142.02;;;;;;;;;;5034527;28;20029;-63
2021/11/15 01:49:33;;;;;;;234.32;127.72;;;;;;;;;;5034513;28;20032;-63
2021/11/15 01:51:59;;;;;;;230.05;124.60;;;;;;;;;;5016040;28;20027;-63
2021/11/15 01:54:28;;;;;;;265.63;133.05;;;;;;;;;;5016650;28;20043;-63
2021/11/15 01:56:55;;;;;;;304.33;137.77;;;;;;;;;;5034266;28;20029;-63
2021/11/15 01:59:21;;;;;;;334.85;141.82;;;;;;;;;;5034219;28;20128;-62
2021/11/15 02:01:48;;;;;;;602.67;161.35;;;;;;;;;;5034514;28;20355;-63
2021/11/15 02:04:14;;;;;;;665.55;158.27;;;;;;;;;;5016456;28;20076;-63
2021/11/15 02:06:40;;;;;;;805.63;156.32;;;;;;;;;;5034398;28;20120;-63
2021/11/15 02:09:07;;;;;;;656.72;144.48;;;;;;;;;;5034100;28;20029;-63
2021/11/15 02:11:36;;;;;;;588.28;137.68;;;;;;;;;;5033494;28;20550;-63
2021/11/15 02:14:03;;;;;;;613.67;146.10;;;;;;;;;;5033971;28;20036;-63
2021/11/15 02:16:30;;;;;;;502.45;144.82;;;;;;;;;;5034001;28;20072;-62
2021/11/15 02:18:56;;;;;;;354.77;132.10;;;;;;;;;;5033851;28;20087;-63
2021/11/15 02:21:23;;;;;;;420.67;133.80;;;;;;;;;;5033831;28;20033;-62
2021/11/15 02:23:50;;;;;;;467.55;133.43;;;;;;;;;;5033870;28;20029;-62
2021/11/15 02:26:18;;;;;;;443.30;131.05;;;;;;;;;;5033750;28;20538;-63
2021/11/15 02:28:46;;;;;;;493.20;133.00;;;;;;;;;;5033729;28;20497;-63
2021/11/15 02:31:15;;;;;;;492.75;137.15;;;;;;;;;;5033523;28;20033;-63
2021/11/15 02:33:41;;;;;;;520.67;138.40;;;;;;;;;;5033698;28;20034;-63
2021/11/15 02:36:08;;;;;;;386.35;130.73;;;;;;;;;;5033592;28;20029;-63
2021/11/15 02:38:35;;;;;;;395.42;135.20;;;;;;;;;;5015772;28;20080;-63
2021/11/15 02:41:02;;;;;;;371.88;130.32;;;;;;;;;;5015655;28;20022;-63
2021/11/15 02:43:28;;;;;;;351.23;129.52;;;;;;;;;;5033751;28;20056;-63
2021/11/15 02:45:54;;;;;;;372.95;128.80;;;;;;;;;;5033449;28;20112;-62
2021/11/15 02:48:25;;;;;;;335.50;127.47;;;;;;;;;;5015533;28;20029;-63
2021/11/15 02:50:51;;;;;;;373.38;127.88;;;;;;;;;;5033453;28;20033;-63
2021/11/15 02:53:17;;;;;;;466.05;131.23;;;;;;;;;;5015536;28;20108;-63
2021/11/15 02:55:44;;;;;;;561.03;130.00;;;;;;;;;;5033300;28;20109;-63
2021/11/15 02:58:11;;;;;;;384.45;127.43;;;;;;;;;;5032932;28;20398;-63
2021/11/15 03:00:43;;;;;;;374.38;121.53;;;;;;;;;;5015486;28;20030;-62
2021/11/15 03:03:10;;;;;;;412.15;121.55;;;;;;;;;;5032400;28;20032;-63
2021/11/15 03:05:39;;;;;;;297.75;111.18;;;;;;;;;;5033117;28;20061;-63
2021/11/15 03:08:07;;;;;;;326.85;114.15;;;;;;;;;;5033110;28;20037;-62
2021/11/15 03:10:34;;;;;;;359.45;117.90;;;;;;;;;;5032880;28;20021;-62
2021/11/15 03:13:01;;;;;;;448.73;124.97;;;;;;;;;;5033163;28;20056;-62
2021/11/15 03:15:27;;;;;;;302.35;112.38;;;;;;;;;;5033078;28;20435;-62
2021/11/15 03:17:55;;;;;;;286.85;110.70;;;;;;;;;;5032981;28;20029;-63
2021/11/15 03:20:21;;;;;;;300.67;110.70;;;;;;;;;;5032956;28;20048;-62
2021/11/15 03:22:48;;;;;;;281.88;110.75;;;;;;;;;;5032947;28;20026;-63
2021/11/15 03:25:15;;;;;;;310.73;111.28;;;;;;;;;;5032925;28;20489;-63
2021/11/15 03:27:41;;;;;;;375.23;117.72;;;;;;;;;;5015166;28;20116;-62
2021/11/15 03:30:08;;;;;;;296.48;114.97;;;;;;;;;;5032933;28;20092;-63
2021/11/15 03:32:34;;;;;;;426.38;121.00;;;;;;;;;;5032876;28;20053;-62
2021/11/15 03:35:02;;;;;;;358.17;113.07;;;;;;;;;;5032944;28;20060;-62
2021/11/15 03:37:28;;;;;;;366.27;119.95;;;;;;;;;;5032772;28;20033;-63
2021/11/15 03:39:54;;;;;;;367.88;115.03;;;;;;;;;;5032802;28;20024;-63
2021/11/15 03:42:21;;;;;;;363.25;115.35;;;;;;;;;;5033070;28;20025;-63
2021/11/15 03:44:47;;;;;;;469.67;119.40;;;;;;;;;;5032829;28;20061;-62
2021/11/15 03:47:13;;;;;;;374.58;115.15;;;;;;;;;;5014889;28;20064;-62
2021/11/15 03:49:39;;;;;;;354.33;115.15;;;;;;;;;;5032973;28;20111;-61
2021/11/15 03:52:06;;;;;;;383.77;117.63;;;;;;;;;;5032701;28;20129;-62
2021/11/15 03:54:32;;;;;;;374.70;116.00;;;;;;;;;;5032672;28;20458;-61
2021/11/15 03:56:58;;;;;;;360.17;112.45;;;;;;;;;;5014837;28;20378;-61
2021/11/15 03:59:25;;;;;;;321.58;110.10;;;;;;;;;;5032621;28;20120;-62
2021/11/15 04:01:52;;;;;;;333.85;110.57;;;;;;;;;;5014915;28;20391;-61
2021/11/15 04:04:20;;;;;;;371.98;112.85;;;;;;;;;;5032575;28;20022;-62
2021/11/15 04:06:51;;;;;;;344.05;110.25;;;;;;;;;;5032555;28;20022;-62
2021/11/15 04:09:18;;;;;;;359.48;108.00;;;;;;;;;;5032648;28;20057;-63
2021/11/15 04:11:44;;;;;;;294.38;105.32;;;;;;;;;;5031977;28;20410;-62
2021/11/15 04:14:15;;;;;;;364.30;104.43;;;;;;;;;;5033784;28;20037;-62
2021/11/15 04:16:45;;;;;;;376.47;107.77;;;;;;;;;;5036159;28;20025;-63
2021/11/15 04:19:13;;;;;;;373.00;109.55;;;;;;;;;;5036116;28;20080;-62
2021/11/15 04:21:40;;;;;;;305.70;106.63;;;;;;;;;;5017969;28;20026;-62
2021/11/15 04:24:06;;;;;;;298.05;104.63;;;;;;;;;;5018027;28;20478;-62
2021/11/15 04:26:33;;;;;;;343.23;111.20;;;;;;;;;;5036040;28;20039;-62
2021/11/15 04:28:59;;;;;;;468.25;110.15;;;;;;;;;;5036001;28;20036;-62
2021/11/15 04:31:26;;;;;;;458.02;106.38;;;;;;;;;;5035941;28;20030;-62
2021/11/15 04:33:53;;;;;;;349.73;109.43;;;;;;;;;;5036175;28;20057;-63
2021/11/15 04:36:19;;;;;;;395.40;108.30;;;;;;;;;;5035830;28;20026;-61
2021/11/15 04:38:45;;;;;;;403.65;109.10;;;;;;;;;;5035434;28;20482;-63
2021/11/15 04:41:12;;;;;;;419.33;108.43;;;;;;;;;;5035768;28;20072;-62
2021/11/15 04:43:38;;;;;;;472.42;109.35;;;;;;;;;;5035683;28;20029;-61
2021/11/15 04:46:04;;;;;;;440.02;106.88;;;;;;;;;;5017771;28;20041;-62
2021/11/15 04:48:30;;;;;;;377.30;106.40;;;;;;;;;;5035616;28;20057;-62
2021/11/15 04:50:57;;;;;;;351.40;101.55;;;;;;;;;;5035542;28;20108;-62
2021/11/15 04:53:23;;;;;;;427.52;105.53;;;;;;;;;;5035247;28;20021;-62
2021/11/15 04:55:50;;;;;;;432.05;105.28;;;;;;;;;;5035799;28;20045;-63
2021/11/15 04:58:16;;;;;;;317.00;98.53;;;;;;;;;;5035332;28;20044;-62
2021/11/15 05:00:43;;;;;;;359.05;97.55;;;;;;;;;;5035660;28;20079;-62
2021/11/15 05:03:09;;;;;;;377.88;95.70;;;;;;;;;;5035362;28;20029;-63
2021/11/15 05:05:35;;;;;;;340.10;94.97;;;;;;;;;;5035352;28;20033;-62
2021/11/15 05:08:01;;;;;;;365.48;95.95;;;;;;;;;;5035291;28;20030;-63
2021/11/15 05:10:30;;;;;;;384.27;94.72;;;;;;;;;;5035181;28;20435;-62
2021/11/15 05:12:57;;;;;;;338.33;89.15;;;;;;;;;;5035188;28;20037;-62
2021/11/15 05:15:23;;;;;;;473.73;95.90;;;;;;;;;;5017445;28;20029;-62
2021/11/15 05:17:50;;;;;;;295.80;90.38;;;;;;;;;;5034813;28;20034;-63
2021/11/15 05:20:17;;;;;;;305.35;91.60;;;;;;;;;;5034965;28;20497;-63
2021/11/15 05:22:43;;;;;;;288.45;91.13;;;;;;;;;;5034716;28;20057;-63
2021/11/15 05:25:10;;;;;;;262.30;90.20;;;;;;;;;;5034367;28;20028;-62
2021/11/15 05:27:37;;;;;;;229.30;80.75;;;;;;;;;;5034570;28;20036;-63
2021/11/15 05:30:07;;;;;;;219.45;80.25;;;;;;;;;;5034891;28;20045;-63
2021/11/15 05:32:33;;;;;;;266.58;77.18;;;;;;;;;;5034794;28;20025;-62
2021/11/15 05:35:00;;;;;;;220.93;71.95;;;;;;;;;;5034632;28;20013;-62
2021/11/15 05:37:26;;;;;;;170.88;67.88;;;;;;;;;;5034630;28;20025;-63
2021/11/15 05:39:52;;;;;;;176.23;67.03;;;;;;;;;;5016826;28;20497;-62
2021/11/15 05:42:19;;;;;;;234.77;69.32;;;;;;;;;;5034864;28;20100;-62
2021/11/15 05:44:45;;;;;;;208.68;68.90;;;;;;;;;;5016744;28;20053;-62
2021/11/15 05:47:11;;;;;;;219.52;71.40;;;;;;;;;;5016782;28;20108;-63
2021/11/15 05:49:37;;;;;;;229.05;74.60;;;;;;;;;;5034459;28;20037;-62
2021/11/15 05:52:04;;;;;;;205.18;75.20;;;;;;;;;;5034425;28;20049;-62
2021/11/15 05:54:30;;;;;;;248.75;76.90;;;;;;;;;;5016565;28;20021;-62
2021/11/15 05:56:56;;;;;;;246.32;75.28;;;;;;;;;;5034012;28;20083;-62
2021/11/15 05:59:23;;;;;;;226.30;74.68;;;;;;;;;;5033906;28;20470;-61
2021/11/15 06:01:49;;;;;;;230.60;75.95;;;;;;;;;;5016486;28;20064;-62
2021/11/15 06:04:15;;;;;;;228.23;72.53;;;;;;;;;;5034223;28;20028;-62
2021/11/15 06:06:41;;;;;;;330.48;80.80;;;;;;;;;;5034171;28;20082;-62
2021/11/15 06:09:08;;;;;;;245.07;76.22;;;;;;;;;;5016284;28;20121;-62
2021/11/15 06:11:34;;;;;;;283.20;80.45;;;;;;;;;;5033801;28;20049;-62
2021/11/15 06:14:00;;;;;;;224.50;76.13;;;;;;;;;;5033687;28;20459;-63
2021/11/15 06:16:26;;;;;;;273.80;85.43;;;;;;;;;;5016127;28;20021;-61
2021/11/15 06:18:53;;;;;;;252.02;82.65;;;;;;;;;;5033862;28;20037;-62
2021/11/15 06:21:19;;;;;;;252.93;77.57;;;;;;;;;;5017826;28;20022;-61
2021/11/15 06:23:45;;;;;;;333.75;74.47;;;;;;;;;;5033666;28;20026;-61
2021/11/15 06:26:11;;;;;;;293.50;71.03;;;;;;;;;;5033859;28;20484;-62
2021/11/15 06:28:39;;;;;;;306.52;69.78;;;;;;;;;;5033759;28;20108;-62
2021/11/15 06:31:08;;;;;;;298.27;68.55;;;;;;;;;;5033709;28;20037;-62
2021/11/15 06:33:35;;;;;;;237.07;65.93;;;;;;;;;;5033643;28;20446;-62
2021/11/15 06:36:01;;;;;;;183.18;61.90;;;;;;;;;;5033455;28;20031;-62
2021/11/15 06:38:27;;;;;;;286.95;64.97;;;;;;;;;;5033468;28;20437;-62
2021/11/15 06:40:54;;;;;;;216.15;64.80;;;;;;;;;;5030932;28;20029;-61
2021/11/15 06:43:20;;;;;;;212.38;65.68;;;;;;;;;;5033206;28;20029;-61
2021/11/15 06:45:46;;;;;;;198.07;62.65;;;;;;;;;;5015863;28;20363;-61
2021/11/15 06:48:12;;;;;;;212.20;60.78;;;;;;;;;;5033231;28;20033;-61
2021/11/15 06:50:38;;;;;;;272.40;63.88;;;;;;;;;;5014573;28;20112;-62
2021/11/15 06:53:05;;;;;;;215.07;62.05;;;;;;;;;;5032654;28;20026;-62
2021/11/15 06:55:31;;;;;;;300.40;64.78;;;;;;;;;;5032898;28;20021;-62
2021/11/15 06:57:58;;;;;;;238.93;62.42;;;;;;;;;;5032999;28;20033;-62
2021/11/15 07:00:26;;;;;;;270.00;63.88;;;;;;;;;;5033172;28;20125;-62
2021/11/15 07:02:54;;;;;;;279.45;62.08;;;;;;;;;;5033175;28;20025;-62
2021/11/15 07:05:21;;;;;;;275.88;65.28;;;;;;;;;;5033217;28;20108;-62
2021/11/15 07:07:48;;;;;;;197.75;64.80;;;;;;;;;;5033108;28;20061;-62
2021/11/15 07:10:15;;;;;;;270.27;63.85;;;;;;;;;;5033298;28;20112;-61
2021/11/15 07:12:41;;;;;;;302.52;66.38;;;;;;;;;;5032589;28;20049;-62
2021/11/15 07:15:08;;;;;;;279.17;64.15;;;;;;;;;;5033003;28;20036;-62
2021/11/15 07:17:34;;;;;;;244.25;67.00;;;;;;;;;;5032872;28;20084;-62
2021/11/15 07:20:01;;;;;;;276.58;66.50;;;;;;;;;;5033261;28;20033;-62
2021/11/15 07:22:27;;;;;;;266.00;67.18;;;;;;;;;;5032785;28;20049;-63
2021/11/15 07:24:53;;;;;;;228.63;66.75;;;;;;;;;;5032636;28;20112;-63
2021/11/15 07:27:20;;;;;;;200.50;65.63;;;;;;;;;;5033275;28;20068;-63
2021/11/15 07:29:46;;;;;;;293.50;69.68;;;;;;;;;;5033154;28;20033;-63
2021/11/15 07:32:13;;;;;;;293.83;68.53;;;;;;;;;;5032717;28;20025;-64
2021/11/15 07:34:42;;;;;;;206.52;64.45;;;;;;;;;;5032770;28;20037;-63
2021/11/15 07:37:08;;;;;;;271.27;65.85;;;;;;;;;;5032872;28;20036;-63
2021/11/15 07:39:42;;;;;;;247.93;70.50;;;;;;;;;;5032777;28;20111;-63
2021/11/15 07:42:09;;;;;;;316.65;69.97;;;;;;;;;;5015091;28;20036;-62
2021/11/15 07:44:35;;;;;;;208.23;64.47;;;;;;;;;;5032096;28;20025;-63
2021/11/15 07:47:01;;;;;;;172.73;56.80;;;;;;;;;;5032696;28;20088;-64
2021/11/15 07:49:28;;;;;;;178.93;57.47;;;;;;;;;;5034057;28;20109;-62
2021/11/15 07:51:54;;;;;;;197.80;59.00;;;;;;;;;;5036709;28;20127;-62
2021/11/15 07:54:20;;;;;;;196.20;63.50;;;;;;;;;;5036609;28;20036;-62
2021/11/15 07:56:49;;;;;;;188.82;60.95;;;;;;;;;;5036338;28;20437;-63
2021/11/15 07:59:16;;;;;;;167.00;60.65;;;;;;;;;;5036418;28;20553;-61
2021/11/15 08:01:42;;;;;;;200.70;62.13;;;;;;;;;;5018578;28;20036;-61
2021/11/15 08:04:08;;;;;;;224.43;63.97;;;;;;;;;;5018528;28;20378;-62
2021/11/15 08:06:34;;;;;;;169.48;62.65;;;;;;;;;;5036096;28;20120;-62
2021/11/15 08:09:01;;;;;;;173.38;65.72;;;;;;;;;;5018467;28;20087;-62
2021/11/15 08:11:32;;;;;;;148.75;61.67;;;;;;;;;;5018093;28;20069;-62
2021/11/15 08:13:59;;;;;;;179.57;65.60;;;;;;;;;;5018510;28;20032;-62
2021/11/15 08:16:25;;;;;;;188.05;67.93;;;;;;;;;;5018721;28;20494;-61
2021/11/15 08:18:53;;;;;;;209.38;69.80;;;;;;;;;;5018168;28;20029;-62
2021/11/15 08:21:22;;;;;;;246.27;81.57;;;;;;;;;;5035763;28;20413;-62
2021/11/15 08:23:50;;;;;;;177.75;70.30;;;;;;;;;;5018236;28;20025;-62
2021/11/15 08:26:35;;;;;;;219.95;73.50;;;;;;;;;;5018241;28;20037;-62
2021/11/15 08:29:03;;;;;;;177.55;71.97;;;;;;;;;;5036153;28;20037;-62
2021/11/15 08:31:30;;;;;;;170.77;68.35;;;;;;;;;;5035892;28;20036;-62
2021/11/15 08:33:57;;;;;;;173.27;68.35;;;;;;;;;;5035760;28;20026;-62
2021/11/15 08:36:24;;;;;;;166.73;65.72;;;;;;;;;;5017991;28;20033;-63
2021/11/15 08:38:59;;;;;;;169.13;69.47;;;;;;;;;;5035679;28;20129;-62
2021/11/15 08:41:27;;;;;;;166.95;68.13;;;;;;;;;;5035703;28;20030;-62
2021/11/15 08:43:54;;;;;;;176.98;72.72;;;;;;;;;;5017944;28;20057;-62
2021/11/15 08:46:21;;;;;;;181.70;73.88;;;;;;;;;;5035632;28;20040;-62
2021/11/15 08:48:48;;;;;;;174.10;73.97;;;;;;;;;;5035319;28;20363;-62
2021/11/15 08:51:15;;;;;;;170.38;72.30;;;;;;;;;;5017999;28;20421;-62
2021/11/15 08:53:42;;;;;;;177.38;72.95;;;;;;;;;;5035786;28;20463;-61
2021/11/15 08:56:08;;;;;;;170.10;70.05;;;;;;;;;;5035421;28;20036;-62
2021/11/15 08:58:35;;;;;;;191.18;75.18;;;;;;;;;;5035303;28;20033;-61
2021/11/15 09:01:01;;;;;;;189.27;76.18;;;;;;;;;;5034048;28;20044;-63
2021/11/15 09:03:27;;;;;;;183.13;74.80;;;;;;;;;;5035359;28;20485;-62
2021/11/15 09:05:54;;;;;;;191.93;74.70;;;;;;;;;;5035560;28;20039;-62
2021/11/15 09:08:22;;;;;;;167.85;73.85;;;;;;;;;;5035257;28;20112;-63
2021/11/15 09:10:48;;;;;;;184.02;78.00;;;;;;;;;;5034737;28;20032;-62
2021/11/15 09:13:16;;;;;;;181.60;75.75;;;;;;;;;;5017103;28;20025;-62
2021/11/15 09:15:42;;;;;;;150.85;68.18;;;;;;;;;;5035038;28;20029;-63
2021/11/15 09:18:08;;;;;;;146.05;68.95;;;;;;;;;;5034852;28;20359;-63
2021/11/15 09:20:35;;;;;;;141.15;66.45;;;;;;;;;;5034985;28;20029;-63
2021/11/15 09:23:01;;;;;;;151.73;70.15;;;;;;;;;;5034993;28;20084;-63
2021/11/15 09:25:28;;;;;;;138.43;63.65;;;;;;;;;;5017019;28;20063;-62
2021/11/15 09:27:54;;;;;;;143.13;65.22;;;;;;;;;;5034905;28;20039;-62
2021/11/15 09:30:21;;;;;;;139.35;65.82;;;;;;;;;;5016856;28;20036;-64
2021/11/15 09:32:47;;;;;;;133.23;65.38;;;;;;;;;;5034562;28;20582;-63
2021/11/15 09:35:13;;;;;;;158.50;63.78;;;;;;;;;;5034923;28;20039;-62
2021/11/15 09:37:40;;;;;;;132.60;63.50;;;;;;;;;;5034279;28;20112;-63
2021/11/15 09:40:08;;;;;;;132.27;63.65;;;;;;;;;;5034569;28;20446;-62
2021/11/15 09:42:35;;;;;;;125.70;61.92;;;;;;;;;;5016699;28;20394;-63
2021/11/15 09:45:02;;;;;;;125.15;61.10;;;;;;;;;;5016678;28;20043;-64
2021/11/15 09:47:28;;;;;;;139.52;64.45;;;;;;;;;;5034095;28;20367;-63
2021/11/15 09:49:55;;;;;;;133.88;64.43;;;;;;;;;;5016515;28;20028;-63
2021/11/15 09:52:21;;;;;;;133.52;63.60;;;;;;;;;;5016493;28;20489;-64
2021/11/15 09:54:47;;;;;;;135.25;63.45;;;;;;;;;;5034521;28;20366;-63
2021/11/15 09:57:15;;;;;;;129.30;59.88;;;;;;;;;;5034004;28;20172;-64
2021/11/15 09:59:44;;;;;;;133.63;63.55;;;;;;;;;;5034074;28;20034;-62
2021/11/15 10:02:11;;;;;;;145.98;68.05;;;;;;;;;;5034004;28;20029;-63
2021/11/15 10:04:37;;;;;;;146.75;67.68;;;;;;;;;;5033932;28;20029;-63
2021/11/15 10:07:04;;;;;;;145.80;69.53;;;;;;;;;;5034069;28;20548;-64
2021/11/15 10:09:31;;;;;;;138.15;66.68;;;;;;;;;;5034138;28;20441;-63
2021/11/15 10:11:58;;;;;;;137.48;65.93;;;;;;;;;;5033171;28;20077;-63
2021/11/15 10:14:26;;;;;;;130.57;64.25;;;;;;;;;;5016183;28;20824;-63
2021/11/15 10:16:56;;;;;;;127.18;62.28;;;;;;;;;;5033639;28;20474;-63
2021/11/15 10:19:24;;;;;;;132.75;63.65;;;;;;;;;;5016292;28;20088;-63
2021/11/15 10:21:57;;;;;;;136.02;65.20;;;;;;;;;;5033891;28;20021;-63
2021/11/15 10:24:32;;;;;;;139.15;68.80;;;;;;;;;;5016007;28;20028;-64
2021/11/15 10:27:01;;;;;;;146.25;68.43;;;;;;;;;;5033792;28;20030;-63
2021/11/15 10:29:31;;;;;;;137.93;68.32;;;;;;;;;;5015991;28;20394;-63
2021/11/15 10:32:04;;;;;;;145.65;69.93;;;;;;;;;;5033731;28;20104;-63
2021/11/15 10:34:31;;;;;;;146.13;70.32;;;;;;;;;;5033383;28;20031;-64
2021/11/15 10:37:02;;;;;;;151.25;76.00;;;;;;;;;;5033024;28;20470;-64
2021/11/15 10:39:45;;;;;;;149.30;73.70;;;;;;;;;;5031921;28;20064;-63
2021/11/15 10:42:15;;;;;;;157.23;76.85;;;;;;;;;;5015488;28;20478;-64
2021/11/15 10:44:52;;;;;;;147.13;72.85;;;;;;;;;;5031801;28;20691;-63
2021/11/15 10:47:24;;;;;;;151.68;74.03;;;;;;;;;;5033265;28;20549;-64
2021/11/15 10:49:58;;;;;;;147.23;73.78;;;;;;;;;;5033351;28;20071;-64
2021/11/15 10:52:24;;;;;;;147.57;71.38;;;;;;;;;;5033177;28;20047;-64
2021/11/15 10:54:56;;;;;;;147.48;71.22;;;;;;;;;;5033174;28;20034;-64
2021/11/15 10:57:32;;;;;;;148.90;74.40;;;;;;;;;;5033338;28;20032;-64
2021/11/15 11:00:18;;;;;;;144.70;75.70;;;;;;;;;;5033127;28;20095;-63
2021/11/15 11:02:54;;;;;;;147.52;75.70;;;;;;;;;;5033281;28;20018;-63
2021/11/15 11:05:20;;;;;;;141.38;71.20;;;;;;;;;;5033187;28;20028;-63
2021/11/15 11:07:48;;;;;;;141.48;71.38;;;;;;;;;;5015390;28;20022;-65
2021/11/15 11:10:23;;;;;;;140.85;71.85;;;;;;;;;;5032883;28;20049;-64
2021/11/15 11:12:59;;;;;;;171.98;81.72;;;;;;;;;;5014847;28;20057;-64
2021/11/15 11:15:35;;;;;;;153.70;71.32;;;;;;;;;;5033120;28;20033;-64
2021/11/15 11:18:19;;;;;;;133.13;70.00;;;;;;;;;;5032715;28;20060;-63
2021/11/15 11:25:54;;;;;;;127.50;67.43;;;;;;;;;;5032866;28;20025;-64
2021/11/15 11:28:27;;;;;;;125.65;64.78;;;;;;;;;;5032856;28;20083;-65
2021/11/15 11:30:54;;;;;;;132.80;67.32;;;;;;;;;;5032972;28;20029;-64
2021/11/15 11:33:20;;;;;;;119.30;59.17;;;;;;;;;;5032819;28;20348;-64
2021/11/15 11:35:50;;;;;;;107.53;55.53;;;;;;;;;;5032748;28;20454;-65
2021/11/15 11:38:17;;;;;;;121.47;63.60;;;;;;;;;;5032667;28;20087;-64
2021/11/15 11:40:44;;;;;;;114.60;58.08;;;;;;;;;;5032612;28;20022;-64
2021/11/15 11:43:10;;;;;;;120.28;60.05;;;;;;;;;;5032396;28;20790;-65
2021/11/15 11:45:36;;;;;;;113.90;57.88;;;;;;;;;;5014929;28;20154;-64
2021/11/15 11:48:03;;;;;;;161.00;81.97;;;;;;;;;;5032428;28;20083;-64
2021/11/15 11:50:31;;;;;;;117.95;61.28;;;;;;;;;;5014899;28;20126;-64
2021/11/15 11:53:04;;;;;;;116.95;58.63;;;;;;;;;;5014864;28;20018;-64
2021/11/15 11:55:38;;;;;;;109.63;58.22;;;12.90;99.90;;;;;;5012354;28;20585;-63
2021/11/15 11:58:25;;;;;;;109.35;57.75;;;12.90;99.90;;;;;;5012399;28;20411;-62
2021/11/15 12:00:56;;;;;;;105.30;57.00;;;13.30;99.90;;;;;;5012838;28;20062;-63
2021/11/15 12:03:23;;;;;;;123.95;67.82;;;13.60;99.90;;;;;;5012778;28;20030;-63
2021/11/15 12:05:50;;;;;;;108.47;58.53;;;13.50;99.90;;;;;;5012770;28;20026;-63
2021/11/15 12:08:16;;;;;;;111.72;59.05;;;13.30;99.90;;;;;;5012842;28;20041;-62
2021/11/15 12:13:45;;;;;;;116.22;66.00;;;12.50;99.90;;;;;;4990288;28;20258;-62
2021/11/15 12:16:14;;;;;;;118.95;63.80;;;;;;;;;;4990660;28;20082;-62
2021/11/15 12:18:53;;;;;;;113.65;62.58;;;;;;;;;;4990374;28;20078;-62
2021/11/15 12:21:22;;;;;;;117.97;62.42;;;;;;;;;;4990502;28;20124;-63
2021/11/15 12:23:51;;;;;;;120.45;61.70;;;;;;;;;;4990502;28;20058;-62
2021/11/15 12:26:24;;;;;;;114.10;63.13;;;11.50;99.90;;;;;;4990241;28;20022;-62
2021/11/15 12:28:52;;;;;;;126.97;63.25;;;;;;;;;;4989877;28;20034;-62
2021/11/15 12:31:38;;;;;;;122.15;63.22;;;;;;;;;;4990059;28;20117;-62
2021/11/15 12:34:06;;;;;;;116.45;59.08;;;;;;;;;;4988830;28;20069;-62
2021/11/15 12:36:40;;;;;;;122.32;62.60;;;;;;;;;;4991664;28;20105;-62
2021/11/15 12:39:17;;;;;;;122.78;61.40;;;;;;;;;;4993712;28;20476;-61
2021/11/15 12:41:49;;;;;;;124.93;63.45;;;;;;;;;;4993980;28;20034;-62
2021/11/15 12:44:51;;;;;;;143.27;70.88;;;;;;;;;;4993839;28;20042;-61
2021/11/15 12:47:18;;;;;;;125.28;63.08;;;;;;;;;;4954727;29;20484;-61
2021/11/15 12:49:50;;;;;;;129.45;66.28;;;;;;;;;;4990812;28;20194;-61
2021/11/15 12:52:19;;;;;;;129.68;62.50;;;;;;;;;;5034069;28;20539;-62
2021/11/15 12:54:53;;;;;;;120.03;61.40;;;;;;;;;;5035028;28;20026;-61
2021/11/15 12:57:19;;;;;;;135.68;65.30;;;;;;;;;;5035283;28;20036;-61
2021/11/15 13:00:00;;;;;;;125.47;61.72;;;;;;;;;;5035225;28;20048;-61
2021/11/15 13:02:26;;;;;;;145.15;71.13;;;;;;;;;;5033574;28;20025;-62
2021/11/15 13:04:53;;;;;;;137.75;69.10;;;;;;;;;;5033636;28;20021;-62
2021/11/15 13:07:20;;;;;;;131.68;67.20;;;;;;;;;;5034803;28;20018;-62
2021/11/15 13:09:57;;;;;;;139.52;71.40;;;;;;;;;;5035143;28;20095;-62
2021/11/15 13:12:25;;;;;;;129.35;68.75;;;;;;;;;;5034563;28;20076;-62
2021/11/15 13:14:52;;;;;;;131.23;71.57;;;;;;;;;;5034807;28;20030;-62
2021/11/15 13:17:21;;;;;;;131.38;69.43;;;;;;;;;;5033642;28;20022;-62
2021/11/15 13:19:48;;;;;;;123.65;62.33;;;;;;;;;;5033596;28;20124;-62
2021/11/15 13:22:16;;;;;;;133.00;69.78;;;;;;;;;;5033545;28;20022;-63
2021/11/15 13:24:44;;;;;;;115.15;59.58;;;;;;;;;;5033137;28;20608;-61
2021/11/15 13:27:11;;;;;;;143.77;73.35;;;;;;;;;;5034791;28;20024;-62
2021/11/15 13:29:38;;;;;;;143.68;69.18;;;;;;;;;;5034684;28;20029;-63
2021/11/15 13:32:05;;;;;;;137.57;68.28;;;;;;;;;;5034779;28;20060;-62
2021/11/15 13:34:31;;;;;;;142.82;68.70;;;;;;;;;;5034384;28;20032;-62
2021/11/15 13:36:57;;;;;;;144.80;68.10;;;;;;;;;;5034847;28;20018;-62
2021/11/15 13:39:23;;;;;;;137.75;66.95;;;;;;;;;;5034269;28;20080;-62
2021/11/15 13:41:51;;;;;;;136.20;68.65;;;;;;;;;;5034397;28;20112;-61
2021/11/15 13:44:17;;;;;;;153.45;72.63;;;;;;;;;;5034779;28;20118;-62
2021/11/15 13:46:44;;;;;;;144.85;71.82;;;;;;;;;;5033484;28;20516;-61
2021/11/15 13:49:10;;;;;;;140.88;67.00;;;;;;;;;;5034474;28;20025;-62
2021/11/15 13:51:37;;;;;;;149.55;70.63;;;;;;;;;;5029351;28;20155;-61
2021/11/15 13:54:04;;;;;;;143.48;69.43;;;;;;;;;;5034194;28;20022;-62
2021/11/15 13:56:30;;;;;;;140.27;68.85;;;;;;;;;;5034050;28;20028;-62
2021/11/15 13:58:56;;;;;;;138.20;65.90;;;;;;;;;;5021514;28;20040;-62
2021/11/15 14:01:22;;;;;;;155.45;71.20;;;;;;;;;;5029508;28;20044;-63
2021/11/15 14:03:49;;;;;;;155.15;72.35;;;;;;;;;;5033086;28;20417;-61
2021/11/15 14:06:15;;;;;;;149.93;69.60;;;;;;;;;;5034082;28;20105;-63
2021/11/15 14:08:44;;;;;;;145.95;69.55;;;;;;;;;;5033665;28;20065;-62
2021/11/15 14:11:11;;;;;;;149.23;67.22;;;;;;;;;;5039954;28;20474;-63